createdAt,value
2022-10-21T00:00:19.614Z,98854.19
2022-10-21T00:03:05.778Z,98834.97
2022-10-21T00:05:52.723Z,98862.06
2022-10-21T00:08:39.304Z,98833.81
2022-10-21T00:11:25.620Z,98814.06
2022-10-21T00:14:11.863Z,98828.72
2022-10-21T00:16:59.261Z,98823.63
2022-10-21T00:19:45.587Z,98815.16
2022-10-21T00:22:32.218Z,98829.03
2022-10-21T00:25:18.669Z,98851.47
2022-10-21T00:28:05.045Z,98845.47
2022-10-21T00:30:51.447Z,98816.13
2022-10-21T00:33:37.815Z,98825.50
2022-10-21T00:36:23.918Z,98798.00
2022-10-21T00:39:10.106Z,98807.63
2022-10-21T00:41:56.607Z,98822.28
2022-10-21T00:44:43.466Z,98809.31
2022-10-21T00:47:29.601Z,98805.81
2022-10-21T00:50:37.456Z,98792.06
2022-10-21T00:53:27.168Z,98779.28
2022-10-21T00:56:18.438Z,98768.94
2022-10-21T00:59:05.539Z,98789.53
2022-10-21T01:01:52.125Z,98809.31
2022-10-21T01:04:38.627Z,98792.97
2022-10-21T01:07:25.506Z,98780.94
2022-10-21T01:10:11.931Z,98813.41
2022-10-21T01:13:04.089Z,98820.34
2022-10-21T01:16:29.665Z,98816.91
2022-10-21T01:19:32.462Z,98800.22
2022-10-21T01:23:06.921Z,98792.59
2022-10-21T01:26:08.699Z,98790.91
2022-10-21T01:29:13.850Z,98779.75
2022-10-21T01:32:27.720Z,98784.22
2022-10-21T01:35:28.570Z,98773.00
2022-10-21T01:38:41.936Z,98740.34
2022-10-21T01:41:42.123Z,98747.25
2022-10-21T01:44:37.459Z,98745.53
2022-10-21T01:47:33.793Z,98736.03
2022-10-21T01:50:27.365Z,98733.50
2022-10-21T01:53:16.182Z,98734.31
2022-10-21T01:56:04.295Z,98723.25
2022-10-21T01:58:53.037Z,98704.13
2022-10-21T02:01:40.508Z,98717.84
2022-10-21T02:04:28.797Z,98692.16
2022-10-21T02:07:15.373Z,98673.28
2022-10-21T02:10:01.497Z,98701.44
2022-10-21T02:12:51.170Z,98684.09
2022-10-21T02:15:39.296Z,98707.34
2022-10-21T02:18:26.914Z,98693.63
2022-10-21T02:21:20.244Z,98679.06
2022-10-21T02:24:21.943Z,98693.53
2022-10-21T02:27:08.587Z,98698.53
2022-10-21T02:29:58.736Z,98687.22
2022-10-21T02:33:00.372Z,98670.50
2022-10-21T02:35:52.934Z,98682.50
2022-10-21T02:38:47.660Z,98649.66
2022-10-21T02:41:38.301Z,98599.78
2022-10-21T02:44:24.829Z,98645.19
2022-10-21T02:50:02.738Z,98655.56
2022-10-21T02:52:49.138Z,98634.91
2022-10-21T02:55:35.237Z,98645.19
2022-10-21T02:58:21.675Z,98649.50
2022-10-21T03:01:08.189Z,98610.00
2022-10-21T03:03:54.447Z,98602.22
2022-10-21T03:06:40.862Z,98610.94
2022-10-21T03:09:27.137Z,98564.63
2022-10-21T03:12:13.775Z,98619.25
2022-10-21T03:15:00.122Z,98618.50
2022-10-21T03:17:47.222Z,98609.81
2022-10-21T03:20:33.396Z,98583.28
2022-10-21T03:23:20.687Z,98607.22
2022-10-21T03:26:07.356Z,98601.06
2022-10-21T03:28:53.494Z,98576.38
2022-10-21T03:31:39.799Z,98605.41
2022-10-21T03:34:26.150Z,98593.88
2022-10-21T03:37:12.373Z,98578.66
2022-10-21T03:39:58.532Z,98594.09
2022-10-21T03:42:45.154Z,98579.34
2022-10-21T03:45:31.378Z,98588.69
2022-10-21T03:48:18.153Z,98592.13
2022-10-21T03:51:04.587Z,98560.38
2022-10-21T03:53:50.882Z,98578.25
2022-10-21T03:56:37.169Z,98602.28
2022-10-21T03:59:23.310Z,98578.13
2022-10-21T04:02:09.583Z,98571.09
2022-10-21T04:04:56.029Z,98561.53
2022-10-21T04:07:42.477Z,98591.56
2022-10-21T04:10:28.778Z,98570.78
2022-10-21T04:13:15.294Z,98595.56
2022-10-21T04:16:03.703Z,98560.53
2022-10-21T04:18:50.019Z,98575.81
2022-10-21T04:21:36.629Z,98578.38
2022-10-21T04:24:22.823Z,98573.97
2022-10-21T04:27:08.908Z,98544.72
2022-10-21T04:29:55.541Z,98560.03
2022-10-21T04:32:42.895Z,98543.41
2022-10-21T04:35:29.418Z,98570.97
2022-10-21T04:38:16.042Z,98551.16
2022-10-21T04:41:03.659Z,98532.34
2022-10-21T04:43:50.111Z,98558.06
2022-10-21T04:46:36.662Z,98543.91
2022-10-21T04:49:22.892Z,98518.31
2022-10-21T04:52:08.960Z,98490.97
2022-10-21T04:54:55.484Z,98521.88
2022-10-21T04:57:42.718Z,98501.56
2022-10-21T05:00:29.227Z,98558.22
2022-10-21T05:03:15.586Z,98524.41
2022-10-21T05:06:01.722Z,98491.00
2022-10-21T05:08:48.228Z,98527.00
2022-10-21T05:11:34.932Z,98550.00
2022-10-21T05:14:22.715Z,98539.69
2022-10-21T05:17:09.549Z,98528.50
2022-10-21T05:19:55.870Z,98555.94
2022-10-21T05:22:42.100Z,98561.81
2022-10-21T05:25:31.787Z,98559.03
2022-10-21T05:28:20.757Z,98549.22
2022-10-21T05:31:07.120Z,98557.22
2022-10-21T05:33:53.282Z,98561.56
2022-10-21T05:36:39.954Z,98555.59
2022-10-21T05:39:26.411Z,98561.56
2022-10-21T05:42:12.514Z,98557.16
2022-10-21T05:44:58.751Z,98553.81
2022-10-21T05:47:44.924Z,98552.97
2022-10-21T05:50:31.025Z,98522.00
2022-10-21T05:53:17.165Z,98533.19
2022-10-21T05:56:06.433Z,98511.84
2022-10-21T05:58:52.915Z,98524.66
2022-10-21T06:01:39.616Z,98559.81
2022-10-21T06:04:26.258Z,98543.09
2022-10-21T06:07:12.341Z,98526.19
2022-10-21T06:09:58.885Z,98542.47
2022-10-21T06:12:45.123Z,98516.88
2022-10-21T06:15:31.675Z,98531.28
2022-10-21T06:18:17.902Z,98533.84
2022-10-21T06:21:04.958Z,98540.63
2022-10-21T06:23:54.841Z,98501.13
2022-10-21T06:26:41.259Z,98523.47
2022-10-21T06:29:27.599Z,98519.22
2022-10-21T06:32:13.682Z,98505.69
2022-10-21T06:35:00.251Z,98533.19
2022-10-21T06:37:46.729Z,98561.19
2022-10-21T06:40:33.021Z,98527.81
2022-10-21T06:43:19.368Z,98553.75
2022-10-21T06:46:12.106Z,98559.09
2022-10-21T06:48:58.405Z,98556.69
2022-10-21T06:51:44.803Z,98583.53
2022-10-21T06:54:31.020Z,98620.31
2022-10-21T06:57:17.380Z,98632.31
2022-10-21T07:00:05.461Z,98621.84
2022-10-21T07:02:51.980Z,98605.56
2022-10-21T07:05:38.480Z,98597.75
2022-10-21T07:08:46.349Z,98581.16
2022-10-21T07:11:32.584Z,98580.44
2022-10-21T07:14:19.162Z,98586.44
2022-10-21T07:17:05.611Z,98587.41
2022-10-21T07:19:51.743Z,98569.13
2022-10-21T07:22:37.986Z,98567.50
2022-10-21T07:25:24.381Z,98559.81
2022-10-21T07:28:10.629Z,98554.44
2022-10-21T07:30:56.998Z,98544.06
2022-10-21T07:33:43.454Z,98567.13
2022-10-21T07:36:33.379Z,98579.22
2022-10-21T07:39:23.261Z,98603.31
2022-10-21T07:42:10.817Z,98584.38
2022-10-21T07:44:59.859Z,98572.56
2022-10-21T07:47:46.882Z,98573.44
2022-10-21T07:50:33.274Z,98608.28
2022-10-21T07:53:21.501Z,98551.38
2022-10-21T07:56:12.520Z,98582.97
2022-10-21T07:59:01.375Z,98574.63
2022-10-21T08:04:34.812Z,98551.13
2022-10-21T08:07:21.420Z,98572.44
2022-10-21T08:10:08.056Z,98543.91
2022-10-21T08:12:54.646Z,98542.28
2022-10-21T08:15:45.778Z,98555.91
2022-10-21T08:18:32.836Z,98555.03
2022-10-21T08:21:19.251Z,98578.97
2022-10-21T08:24:05.789Z,98584.88
2022-10-21T08:26:52.367Z,98593.56
2022-10-21T08:29:40.030Z,98602.16
2022-10-21T08:32:26.514Z,98608.31
2022-10-21T08:35:12.809Z,98600.72
2022-10-21T08:37:59.037Z,98611.81
2022-10-21T08:40:48.281Z,98599.69
2022-10-21T08:43:37.867Z,98601.56
2022-10-21T08:46:29.582Z,98614.50
2022-10-21T08:49:46.073Z,98617.00
2022-10-21T08:52:48.890Z,98615.13
2022-10-21T08:55:40.842Z,98624.63
2022-10-21T08:58:27.299Z,98616.00
2022-10-21T09:01:39.240Z,98660.13
2022-10-21T09:04:48.505Z,98643.59
2022-10-21T09:07:59.786Z,98657.59
2022-10-21T09:11:09.800Z,98656.69
2022-10-21T09:14:15.415Z,98649.00
2022-10-21T09:17:28.845Z,98664.44
2022-10-21T09:20:18.355Z,98684.16
2022-10-21T09:23:22.863Z,98690.03
2022-10-21T09:26:30.429Z,98699.75
2022-10-21T09:29:28.323Z,98708.09
2022-10-21T09:32:19.178Z,98698.06
2022-10-21T09:35:15.414Z,98718.28
2022-10-21T09:38:16.528Z,98695.09
2022-10-21T09:41:05.784Z,98660.88
2022-10-21T09:43:52.353Z,98686.22
2022-10-21T09:46:38.717Z,98683.06
2022-10-21T09:50:02.166Z,98698.38
2022-10-21T09:52:49.470Z,98713.59
2022-10-21T09:55:39.268Z,98704.72
2022-10-21T09:58:28.587Z,98708.16
2022-10-21T10:01:21.175Z,98723.72
2022-10-21T10:04:31.556Z,98714.75
2022-10-21T10:07:34.792Z,98717.31
2022-10-21T10:10:33.316Z,98715.72
2022-10-21T10:13:24.707Z,98699.00
2022-10-21T10:16:22.608Z,98689.06
2022-10-21T10:19:17.962Z,98703.28
2022-10-21T10:22:15.772Z,98705.03
2022-10-21T10:25:12.063Z,98672.28
2022-10-21T10:27:59.807Z,98715.69
2022-10-21T10:31:04.735Z,98699.88
2022-10-21T10:33:59.294Z,98689.16
2022-10-21T10:36:48.238Z,98707.00
2022-10-21T10:39:38.851Z,98667.97
2022-10-21T10:42:29.175Z,98710.47
2022-10-21T10:45:22.512Z,98701.53
2022-10-21T10:48:38.476Z,98694.13
2022-10-21T10:51:27.633Z,98726.59
2022-10-21T10:54:28.189Z,98728.84
2022-10-21T10:57:29.902Z,98723.28
2022-10-21T11:00:25.581Z,98718.69
2022-10-21T11:03:21.819Z,98708.00
2022-10-21T11:06:18.068Z,98712.28
2022-10-21T11:09:07.816Z,98676.81
2022-10-21T11:11:56.284Z,98707.03
2022-10-21T11:14:44.417Z,98710.41
2022-10-21T11:17:38.985Z,98712.94
2022-10-21T11:20:35.348Z,98711.53
2022-10-21T11:23:47.482Z,98707.50
2022-10-21T11:26:53.310Z,98684.09
2022-10-21T11:29:51.695Z,98718.38
2022-10-21T11:32:56.545Z,98701.66
2022-10-21T11:36:01.217Z,98695.97
2022-10-21T11:39:05.724Z,98723.13
2022-10-21T11:41:58.526Z,98714.19
2022-10-21T11:45:10.838Z,98724.84
2022-10-21T11:48:22.347Z,98708.81
2022-10-21T11:51:26.314Z,98676.88
2022-10-21T11:54:45.518Z,98691.38
2022-10-21T11:58:04.337Z,98691.38
2022-10-21T12:01:10.578Z,98696.75
2022-10-21T12:04:13.933Z,98673.41
2022-10-21T12:07:00.314Z,98693.81
2022-10-21T12:10:09.826Z,98691.63
2022-10-21T12:13:02.353Z,98687.81
2022-10-21T12:15:58.162Z,98701.94
2022-10-21T12:18:50.397Z,98700.72
2022-10-21T12:21:42.097Z,98710.25
2022-10-21T12:24:34.354Z,98705.97
2022-10-21T12:27:38.312Z,98706.41
2022-10-21T12:31:00.005Z,98704.75
2022-10-21T12:33:49.208Z,98670.72
2022-10-21T12:36:41.238Z,98699.34
2022-10-21T12:39:33.707Z,98702.03
2022-10-21T12:42:28.460Z,98676.91
2022-10-21T12:45:41.291Z,98681.47
2022-10-21T12:48:38.669Z,98680.53
2022-10-21T12:51:28.364Z,98663.97
2022-10-21T12:54:19.149Z,98680.91
2022-10-21T12:57:09.422Z,98669.03
2022-10-21T13:03:46.288Z,98676.81
2022-10-21T13:06:56.579Z,98675.81
2022-10-21T13:10:05.906Z,98676.25
2022-10-21T13:13:28.710Z,98672.25
2022-10-21T13:16:17.937Z,98665.22
2022-10-21T13:19:25.315Z,98665.56
2022-10-21T13:22:15.069Z,98658.66
2022-10-21T13:25:23.925Z,98640.53
2022-10-21T13:28:13.020Z,98640.28
2022-10-21T13:30:59.621Z,98635.84
2022-10-21T13:33:53.836Z,98615.94
2022-10-21T13:36:43.487Z,98645.22
2022-10-21T13:39:34.558Z,98654.16
2022-10-21T13:42:24.783Z,98643.00
2022-10-21T13:45:29.963Z,98646.25
2022-10-21T13:48:20.128Z,98643.00
2022-10-21T13:51:17.177Z,98644.59
2022-10-21T13:54:09.797Z,98670.66
2022-10-21T13:56:56.299Z,98670.19
2022-10-21T13:59:43.281Z,98672.34
2022-10-21T14:02:30.500Z,98659.13
2022-10-21T14:06:05.377Z,98661.88
2022-10-21T14:08:54.350Z,98665.25
2022-10-21T14:11:48.635Z,98664.72
2022-10-21T14:14:39.046Z,98663.00
2022-10-21T14:17:27.589Z,98660.63
2022-10-21T14:20:20.629Z,98621.03
2022-10-21T14:23:16.434Z,98606.91
2022-10-21T14:26:07.288Z,98661.75
2022-10-21T14:28:54.022Z,98653.91
2022-10-21T14:31:44.170Z,98654.31
2022-10-21T14:34:35.550Z,98645.97
2022-10-21T14:37:21.839Z,98645.56
2022-10-21T14:40:26.589Z,98659.28
2022-10-21T14:43:13.034Z,98654.97
2022-10-21T14:45:59.721Z,98644.31
2022-10-21T14:48:59.471Z,98643.25
2022-10-21T14:51:46.251Z,98639.97
2022-10-21T14:54:38.530Z,98662.84
2022-10-21T14:57:40.185Z,98656.94
2022-10-21T15:00:34.666Z,98624.66
2022-10-21T15:03:43.104Z,98671.00
2022-10-21T15:06:32.666Z,98670.00
2022-10-21T15:09:20.342Z,98665.94
2022-10-21T15:12:18.872Z,98640.00
2022-10-21T15:15:40.511Z,98649.00
2022-10-21T15:18:48.898Z,98647.34
2022-10-21T15:21:54.318Z,98593.63
2022-10-21T15:24:41.746Z,98646.84
2022-10-21T15:27:36.590Z,98652.63
2022-10-21T15:30:23.455Z,98654.56
2022-10-21T15:33:12.417Z,98641.91
2022-10-21T15:36:09.967Z,98634.47
2022-10-21T15:38:56.519Z,98625.88
2022-10-21T15:41:43.209Z,98643.22
2022-10-21T15:44:35.887Z,98581.13
2022-10-21T15:47:24.026Z,98634.94
2022-10-21T15:50:18.019Z,98626.00
2022-10-21T15:53:04.528Z,98645.69
2022-10-21T15:55:50.926Z,98635.59
2022-10-21T15:58:37.213Z,98597.91
2022-10-21T16:01:23.667Z,98621.03
2022-10-21T16:04:10.245Z,98593.72
2022-10-21T16:06:56.956Z,98609.13
2022-10-21T16:09:43.193Z,98622.03
2022-10-21T16:12:30.321Z,98596.19
2022-10-21T16:15:18.310Z,98624.66
2022-10-21T16:18:11.374Z,98632.63
2022-10-21T16:20:58.466Z,98632.78
2022-10-21T16:23:45.313Z,98623.56
2022-10-21T16:26:33.438Z,98646.94
2022-10-21T16:29:23.127Z,98633.59
2022-10-21T16:32:12.156Z,98644.25
2022-10-21T16:34:58.764Z,98641.72
2022-10-21T16:37:45.516Z,98654.69
2022-10-21T16:40:34.979Z,98656.22
2022-10-21T16:43:21.242Z,98627.41
2022-10-21T16:46:27.772Z,98625.22
2022-10-21T16:49:18.276Z,98632.88
2022-10-21T16:52:04.514Z,98637.91
2022-10-21T16:54:50.827Z,98621.97
2022-10-21T16:57:37.377Z,98660.66
2022-10-21T17:00:24.112Z,98654.16
2022-10-21T17:03:12.110Z,98621.03
2022-10-21T17:05:58.740Z,98664.81
2022-10-21T17:08:45.134Z,98641.94
2022-10-21T17:11:34.265Z,98621.50
2022-10-21T17:14:20.713Z,98594.19
2022-10-21T17:17:07.406Z,98646.47
2022-10-21T17:19:53.774Z,98657.47
2022-10-21T17:22:39.983Z,98636.31
2022-10-21T17:25:27.827Z,98631.16
2022-10-21T17:28:14.471Z,98621.91
2022-10-21T17:31:00.633Z,98626.44
2022-10-21T17:33:48.323Z,98636.13
2022-10-21T17:36:35.488Z,98664.44
2022-10-21T17:39:22.283Z,98660.16
2022-10-21T17:42:14.021Z,98629.41
2022-10-21T17:45:03.593Z,98636.84
2022-10-21T17:47:52.033Z,98628.88
2022-10-21T17:50:38.679Z,98643.88
2022-10-21T17:53:26.360Z,98628.31
2022-10-21T17:56:12.659Z,98598.34
2022-10-21T18:03:46.786Z,98639.63
2022-10-21T18:06:33.390Z,98633.69
2022-10-21T18:09:19.680Z,98621.09
2022-10-21T18:12:09.724Z,98633.13
2022-10-21T18:14:56.370Z,98628.91
2022-10-21T18:17:43.089Z,98613.63
2022-10-21T18:20:29.795Z,98609.31
2022-10-21T18:23:16.425Z,98584.56
2022-10-21T18:26:08.817Z,98629.16
2022-10-21T18:28:58.660Z,98608.66
2022-10-21T18:31:45.209Z,98604.41
2022-10-21T18:34:31.633Z,98607.81
2022-10-21T18:37:17.951Z,98572.53
2022-10-21T18:40:05.869Z,98604.19
2022-10-21T18:42:52.064Z,98586.38
2022-10-21T18:45:38.638Z,98601.84
2022-10-21T18:48:25.414Z,98614.16
2022-10-21T18:51:15.413Z,98590.03
2022-10-21T18:54:01.981Z,98564.25
2022-10-21T18:56:48.448Z,98594.97
2022-10-21T18:59:34.793Z,98611.31
2022-10-21T19:02:22.775Z,98586.53
2022-10-21T19:05:09.330Z,98584.03
2022-10-21T19:07:55.565Z,98584.88
2022-10-21T19:10:42.945Z,98599.25
2022-10-21T19:13:29.459Z,98600.75
2022-10-21T19:16:15.591Z,98607.81
2022-10-21T19:19:02.568Z,98576.88
2022-10-21T19:21:49.186Z,98605.72
2022-10-21T19:24:35.974Z,98568.59
2022-10-21T19:27:22.535Z,98595.69
2022-10-21T19:30:09.783Z,98599.13
2022-10-21T19:33:00.054Z,98632.69
2022-10-21T19:35:46.183Z,98628.56
2022-10-21T19:38:45.382Z,98638.59
2022-10-21T19:41:31.773Z,98620.88
2022-10-21T19:44:18.026Z,98621.69
2022-10-21T19:47:04.234Z,98595.91
2022-10-21T19:49:50.673Z,98646.72
2022-10-21T19:52:37.849Z,98634.72
2022-10-21T19:55:24.699Z,98615.19
2022-10-21T19:58:10.886Z,98616.22
2022-10-21T20:01:06.726Z,98612.75
2022-10-21T20:03:54.512Z,98623.69
2022-10-21T20:06:41.126Z,98616.22
2022-10-21T20:09:27.467Z,98630.66
2022-10-21T20:12:13.682Z,98611.13
2022-10-21T20:15:00.269Z,98631.94
2022-10-21T20:17:46.647Z,98628.59
2022-10-21T20:20:32.863Z,98649.91
2022-10-21T20:23:19.021Z,98638.16
2022-10-21T20:26:06.305Z,98670.03
2022-10-21T20:28:52.848Z,98672.47
2022-10-21T20:31:39.539Z,98669.75
2022-10-21T20:34:26.115Z,98680.97
2022-10-21T20:37:12.678Z,98643.41
2022-10-21T20:39:58.922Z,98641.59
2022-10-21T20:42:49.690Z,98644.41
2022-10-21T20:45:36.288Z,98633.31
2022-10-21T20:48:22.482Z,98658.19
2022-10-21T20:51:11.431Z,98674.53
2022-10-21T20:54:01.328Z,98656.59
2022-10-21T20:56:47.632Z,98672.06
2022-10-21T20:59:34.495Z,98624.91
2022-10-21T21:02:21.080Z,98653.31
2022-10-21T21:05:08.060Z,98652.25
2022-10-21T21:07:54.867Z,98673.00
2022-10-21T21:10:42.049Z,98680.78
2022-10-21T21:13:28.851Z,98686.69
2022-10-21T21:16:17.950Z,98691.03
2022-10-21T21:19:07.586Z,98693.59
2022-10-21T21:21:54.147Z,98687.75
2022-10-21T21:24:41.786Z,98708.19
2022-10-21T21:27:28.983Z,98729.69
2022-10-21T21:30:15.550Z,98710.94
2022-10-21T21:33:01.833Z,98721.19
2022-10-21T21:35:47.966Z,98703.19
2022-10-21T21:38:34.892Z,98734.06
2022-10-21T21:41:25.535Z,98742.72
2022-10-21T21:44:11.863Z,98688.59
2022-10-21T21:46:58.198Z,98737.91
2022-10-21T21:49:44.774Z,98733.56
2022-10-21T21:52:31.914Z,98713.34
2022-10-21T21:55:18.578Z,98703.56
2022-10-21T21:58:05.574Z,98713.97
2022-10-21T22:00:51.843Z,98681.31
2022-10-21T22:03:39.245Z,98709.72
2022-10-21T22:06:29.211Z,98693.06
2022-10-21T22:09:15.765Z,98675.09
2022-10-21T22:12:01.989Z,98668.03
2022-10-21T22:14:48.647Z,98676.25
2022-10-21T22:17:35.216Z,98683.97
2022-10-21T22:20:22.148Z,98690.06
2022-10-21T22:23:08.567Z,98708.38
2022-10-21T22:25:55.072Z,98685.97
2022-10-21T22:28:41.902Z,98702.38
2022-10-21T22:31:30.512Z,98694.72
2022-10-21T22:34:17.641Z,98702.81
2022-10-21T22:37:03.980Z,98708.69
2022-10-21T22:39:50.239Z,98701.09
2022-10-21T22:42:36.661Z,98691.66
2022-10-21T22:45:23.072Z,98712.47
2022-10-21T22:48:09.234Z,98681.69
2022-10-21T22:50:55.481Z,98667.38
2022-10-21T22:53:41.947Z,98680.66
2022-10-21T22:56:28.649Z,98692.56
2022-10-21T22:59:15.052Z,98697.03
2022-10-21T23:02:01.266Z,98721.22
2022-10-21T23:04:47.414Z,98705.84
2022-10-21T23:07:33.939Z,98707.59
2022-10-21T23:10:20.235Z,98727.50
2022-10-21T23:13:06.990Z,98726.69
2022-10-21T23:15:53.289Z,98730.19
2022-10-21T23:18:39.453Z,98762.25
2022-10-21T23:21:25.887Z,98764.06
2022-10-21T23:24:12.352Z,98737.25
2022-10-21T23:27:00.723Z,98766.53
2022-10-21T23:29:47.754Z,98767.19
2022-10-21T23:32:34.444Z,98734.81
2022-10-21T23:35:20.893Z,98783.72
2022-10-21T23:38:07.401Z,98756.44
2022-10-21T23:40:53.642Z,98705.72
2022-10-21T23:43:40.019Z,98755.03
2022-10-21T23:49:12.503Z,98696.63
2022-10-21T23:51:59.070Z,98748.78
2022-10-21T23:54:45.770Z,98741.13
2022-10-21T23:57:32.199Z,98713.69
